Round Knob, Illinois
Current Conditions -  °F | °C
As of 1:15 PM on Saturday 20 Dec 2014 (Local Time) from KM30 Reporting Station
Scattered Clouds Scattered Clouds  
Wind Chill: 42°   Ceiling: Unl
Heat Index: 42°   Visibility: 10mi
Dew Point: 31°   Wind: 0mph
Humidity: 63%   Direction: NA
Pressure: 30.24"   Gusts: NA
Location:  37.2288°N, 88.7044°W
Report Text: KM30 201915Z AUTO 00000KT 10SM SCT065 06/M01 A3024 RMK AO2 T00581007
Loading
Personal Weather Stations






























Interactive Weather Map New forecast layout! Learn more

10-Day Weather Forecast

Advertisements
Track Severe Weather on mobile